Time;durP1;ratioP1;P1;durP2;ratioP2;P2;SDS_P1;SDS_P2;PMS_P1;PMS_P2;Temp;Humidity;BMP_temperature;BMP_pressure;BME280_temperature;BME280_humidity;BME280_pressure;Samples;Min_cycle;Max_cycle;Signal;HPM_P1;HPM_P2
2022/04/16 00:00:56;;;;;;;37.97;21.10;;;7.30;99.90;;;;;;2510116;23;20021;-75
2022/04/16 00:01:56;;;;;;;35.25;21.52;;;7.30;99.90;;;;;;2508288;23;20003;-72
2022/04/16 00:03:00;;;;;;;35.40;20.98;;;7.30;99.90;;;;;;2507579;23;20360;-75
2022/04/16 00:04:01;;;;;;;36.58;20.52;;;7.30;99.90;;;;;;2508123;23;20432;-72
2022/04/16 00:05:02;;;;;;;35.45;20.35;;;7.30;99.90;;;;;;2507783;23;20010;-72
2022/04/16 00:06:03;;;;;;;34.65;20.52;;;7.30;99.90;;;;;;2496108;23;20050;-73
2022/04/16 00:07:04;;;;;;;33.13;20.55;;;7.30;99.90;;;;;;2496123;23;20083;-72
2022/04/16 00:08:08;;;;;;;30.33;19.48;;;7.30;99.90;;;;;;2494831;23;20441;-72
2022/04/16 00:09:09;;;;;;;34.85;19.33;;;7.20;99.90;;;;;;2508834;23;20007;-76
2022/04/16 00:10:12;;;;;;;30.80;19.00;;;7.20;99.90;;;;;;2508358;23;20003;-73
2022/04/16 00:11:13;;;;;;;32.50;19.83;;;7.20;99.90;;;;;;2507734;23;20015;-73
2022/04/16 00:12:17;;;;;;;31.40;19.08;;;7.20;99.90;;;;;;2496016;23;20035;-72
2022/04/16 00:13:19;;;;;;;30.27;18.70;;;7.10;99.90;;;;;;2495401;23;20022;-71
2022/04/16 00:14:19;;;;;;;31.08;19.10;;;7.10;99.90;;;;;;2506672;23;20062;-72
2022/04/16 00:15:21;;;;;;;30.70;19.25;;;7.10;99.90;;;;;;2497358;23;20035;-72
2022/04/16 00:16:22;;;;;;;29.75;18.48;;;7.20;99.90;;;;;;2495603;23;20018;-72
2022/04/16 00:17:23;;;;;;;33.58;19.58;;;7.20;99.90;;;;;;2508012;23;20026;-73
2022/04/16 00:18:24;;;;;;;31.80;19.48;;;7.20;99.90;;;;;;2509362;23;20005;-73
2022/04/16 00:19:26;;;;;;;29.63;18.50;;;7.10;99.90;;;;;;2507569;23;20066;-72
2022/04/16 00:20:27;;;;;;;34.70;19.85;;;7.20;99.90;;;;;;2507725;23;20009;-71
2022/04/16 00:21:27;;;;;;;30.50;19.58;;;7.10;99.90;;;;;;2497567;23;20839;-72
2022/04/16 00:22:28;;;;;;;32.17;19.83;;;7.00;99.90;;;;;;2495782;23;20348;-72
2022/04/16 00:23:30;;;;;;;30.23;19.40;;;7.00;99.90;;;;;;2507959;23;20499;-72
2022/04/16 00:24:31;;;;;;;29.83;19.17;;;7.00;99.90;;;;;;2510264;23;19999;-73
2022/04/16 00:25:34;;;;;;;33.17;19.38;;;7.00;99.90;;;;;;2496050;23;20022;-71
2022/04/16 00:26:41;;;;;;;30.88;19.38;;;7.00;99.90;;;;;;2496429;23;20011;-72
2022/04/16 00:27:41;;;;;;;31.17;19.17;;;7.00;99.90;;;;;;2508801;23;20459;-72
2022/04/16 00:28:42;;;;;;;29.92;19.38;;;7.10;99.90;;;;;;2508218;23;20014;-72
2022/04/16 00:29:43;;;;;;;30.42;19.13;;;7.10;99.90;;;;;;2508439;23;20428;-72
2022/04/16 00:30:43;;;;;;;30.88;19.42;;;7.10;99.90;;;;;;2497202;23;20016;-71
2022/04/16 00:31:47;;;;;;;28.95;18.95;;;7.10;99.90;;;;;;2495313;23;20082;-71
2022/04/16 00:32:51;;;;;;;29.63;19.05;;;7.00;99.90;;;;;;2495502;23;20816;-72
2022/04/16 00:33:52;;;;;;;33.95;20.85;;;7.00;99.90;;;;;;2497277;23;20012;-72
2022/04/16 00:34:53;;;;;;;32.50;20.30;;;7.00;99.90;;;;;;2507429;23;20022;-73
2022/04/16 00:35:54;;;;;;;32.33;19.60;;;7.00;99.90;;;;;;2507244;23;20014;-73
2022/04/16 00:36:54;;;;;;;32.90;19.95;;;7.00;99.90;;;;;;2509276;23;20074;-72
2022/04/16 00:37:55;;;;;;;32.97;20.00;;;7.00;99.90;;;;;;2507728;23;20340;-72
2022/04/16 00:38:59;;;;;;;32.92;20.27;;;7.00;99.90;;;;;;2495712;23;20018;-72
2022/04/16 00:40:00;;;;;;;35.55;19.70;;;7.00;99.90;;;;;;2497509;23;20007;-72
2022/04/16 00:41:02;;;;;;;32.70;19.55;;;7.00;99.90;;;;;;2508162;23;20011;-70
2022/04/16 00:42:03;;;;;;;31.40;18.45;;;7.00;99.90;;;;;;2484826;23;20004;-70
2022/04/16 00:43:06;;;;;;;26.20;17.50;;;7.10;99.90;;;;;;2472909;23;20019;-72
2022/04/16 00:44:06;;;;;;;27.88;17.40;;;7.00;99.90;;;;;;2472133;23;20009;-72
2022/04/16 00:45:08;;;;;;;28.35;17.13;;;7.00;99.90;;;;;;2485163;23;20047;-72
2022/04/16 00:46:09;;;;;;;25.75;16.70;;;6.90;99.90;;;;;;2508124;23;19999;-73
2022/04/16 00:47:12;;;;;;;25.45;15.98;;;6.90;99.90;;;;;;2507681;23;20014;-71
2022/04/16 00:48:13;;;;;;;24.08;15.40;;;6.90;99.90;;;;;;2508947;23;20082;-71
2022/04/16 00:49:14;;;;;;;22.67;15.23;;;6.80;99.90;;;;;;2508093;23;20687;-72
2022/04/16 00:50:15;;;;;;;21.60;14.63;;;6.80;99.90;;;;;;2507883;23;20018;-72
2022/04/16 00:51:18;;;;;;;20.48;13.70;;;6.70;99.90;;;;;;2509973;23;20018;-71
2022/04/16 00:52:20;;;;;;;21.15;12.80;;;6.70;99.90;;;;;;2507818;23;20003;-70
2022/04/16 00:53:25;;;;;;;18.08;11.77;;;6.60;99.90;;;;;;2495937;23;20010;-75
2022/04/16 00:54:26;;;;;;;18.58;12.05;;;6.60;99.90;;;;;;2486199;23;20070;-73
2022/04/16 00:55:26;;;;;;;16.58;11.40;;;6.60;99.90;;;;;;2496083;23;20219;-72
2022/04/16 00:56:27;;;;;;;15.13;10.80;;;6.60;99.90;;;;;;2495923;23;20015;-72
2022/04/16 00:57:27;;;;;;;16.20;10.82;;;6.50;99.90;;;;;;2495036;23;20011;-72
2022/04/16 00:58:28;;;;;;;16.05;10.88;;;6.50;99.90;;;;;;2508321;23;20390;-73
2022/04/16 00:59:28;;;;;;;15.98;10.43;;;6.50;99.90;;;;;;2508574;23;20420;-71
2022/04/16 01:00:32;;;;;;;15.75;10.45;;;6.50;99.90;;;;;;2508235;23;20344;-75
2022/04/16 01:01:33;;;;;;;15.00;10.07;;;6.50;99.90;;;;;;2508152;23;20010;-72
2022/04/16 01:02:39;;;;;;;15.70;10.52;;;6.50;99.90;;;;;;2495731;23;20003;-74
2022/04/16 01:03:43;;;;;;;16.60;10.82;;;6.50;99.90;;;;;;2496045;23;20003;-73
2022/04/16 01:04:43;;;;;;;13.07;9.73;;;6.50;99.90;;;;;;2506937;23;20090;-72
2022/04/16 01:05:44;;;;;;;14.18;9.70;;;6.50;99.90;;;;;;2506994;23;20007;-71
2022/04/16 01:06:48;;;;;;;14.60;10.48;;;6.60;99.90;;;;;;2495079;23;20015;-71
2022/04/16 01:07:54;;;;;;;13.15;9.90;;;6.50;99.90;;;;;;2495685;23;20015;-71
2022/04/16 01:08:55;;;;;;;13.85;9.73;;;6.40;99.90;;;;;;2507673;23;20102;-72
2022/04/16 01:09:55;;;;;;;14.32;9.43;;;6.50;99.90;;;;;;2507399;23;20709;-74
2022/04/16 01:10:56;;;;;;;14.18;9.75;;;6.50;99.90;;;;;;2506848;23;20045;-72
2022/04/16 01:11:56;;;;;;;12.93;9.68;;;6.50;99.90;;;;;;2506834;23;20042;-74
2022/04/16 01:13:03;;;;;;;12.13;9.30;;;6.60;99.90;;;;;;2506685;23;20015;-72
2022/04/16 01:14:03;;;;;;;13.32;9.50;;;6.60;99.90;;;;;;2494974;23;20107;-72
2022/04/16 01:15:05;;;;;;;15.38;9.95;;;6.50;99.90;;;;;;2494940;23;20051;-73
2022/04/16 01:16:06;;;;;;;14.20;9.93;;;6.50;99.90;;;;;;2507621;23;20002;-71
2022/04/16 01:17:07;;;;;;;14.30;10.00;;;6.40;99.90;;;;;;2507380;23;20057;-72
2022/04/16 01:18:08;;;;;;;14.50;10.30;;;6.40;99.90;;;;;;2494978;23;20042;-71
2022/04/16 01:19:10;;;;;;;15.77;10.77;;;6.40;99.90;;;;;;2494882;23;20372;-72
2022/04/16 01:20:11;;;;;;;15.35;10.27;;;6.30;99.90;;;;;;2507562;23;20007;-72
2022/04/16 01:21:12;;;;;;;14.32;10.45;;;6.30;99.90;;;;;;2507603;23;20497;-71
2022/04/16 01:22:14;;;;;;;14.32;9.95;;;6.20;99.90;;;;;;2507557;23;20329;-72
2022/04/16 01:23:15;;;;;;;14.73;10.10;;;6.20;99.90;;;;;;2507221;23;20458;-71
2022/04/16 01:24:16;;;;;;;16.70;10.32;;;6.20;99.90;;;;;;2507404;23;20317;-71
2022/04/16 01:25:19;;;;;;;15.00;9.85;;;6.20;99.90;;;;;;2494934;23;19999;-72
2022/04/16 01:26:22;;;;;;;15.32;10.18;;;6.10;99.90;;;;;;2482916;23;20010;-72
2022/04/16 01:27:24;;;;;;;15.15;9.50;;;6.10;99.90;;;;;;2495292;23;20007;-71
2022/04/16 01:28:24;;;;;;;14.30;9.27;;;6.10;99.90;;;;;;2494861;23;20003;-71
2022/04/16 01:29:25;;;;;;;12.27;8.88;;;6.20;99.90;;;;;;2495029;23;20102;-71
2022/04/16 01:30:25;;;;;;;12.90;9.13;;;6.20;99.90;;;;;;2506724;23;20034;-72
2022/04/16 01:31:26;;;;;;;13.70;9.13;;;6.20;99.90;;;;;;2507054;23;20648;-72
2022/04/16 01:32:27;;;;;;;12.77;9.18;;;6.20;99.90;;;;;;2506833;23;20014;-72
2022/04/16 01:33:28;;;;;;;14.10;9.63;;;6.10;99.90;;;;;;2507345;23;20431;-72
2022/04/16 01:34:29;;;;;;;13.07;8.90;;;6.10;99.90;;;;;;2507435;23;20007;-71
2022/04/16 01:35:30;;;;;;;11.00;8.98;;;6.00;99.90;;;;;;2507925;23;20018;-72
2022/04/16 01:36:31;;;;;;;12.82;9.20;;;6.00;99.90;;;;;;2507478;23;20010;-72
2022/04/16 01:37:35;;;;;;;12.10;8.60;;;6.00;99.90;;;;;;2495065;23;20003;-70
2022/04/16 01:38:35;;;;;;;12.45;8.90;;;6.00;99.90;;;;;;2495635;23;20099;-70
2022/04/16 01:39:36;;;;;;;13.45;9.02;;;6.00;99.90;;;;;;2506654;23;19999;-73
2022/04/16 01:40:38;;;;;;;13.88;8.80;;;6.00;99.90;;;;;;2507083;23;20015;-73
2022/04/16 01:41:40;;;;;;;12.35;9.18;;;6.00;99.90;;;;;;2507728;23;20026;-73
2022/04/16 01:42:43;;;;;;;11.18;8.20;;;6.00;99.90;;;;;;2499052;23;20384;-74
2022/04/16 01:43:44;;;;;;;13.18;8.85;;;6.00;99.90;;;;;;2498397;23;20058;-72
2022/04/16 01:44:44;;;;;;;10.90;8.15;;;6.00;99.90;;;;;;2511082;23;20010;-71
2022/04/16 01:45:50;;;;;;;11.95;8.60;;;6.00;99.90;;;;;;2495380;23;20564;-70
2022/04/16 01:46:50;;;;;;;13.20;8.43;;;6.00;99.90;;;;;;2495784;23;20023;-72
2022/04/16 01:47:51;;;;;;;12.57;8.85;;;5.90;99.90;;;;;;2506992;23;20003;-71
2022/04/16 01:48:54;;;;;;;14.10;8.60;;;5.90;99.90;;;;;;2507208;23;20006;-73
2022/04/16 01:49:56;;;;;;;12.32;8.05;;;5.80;99.90;;;;;;2508149;23;20035;-73
2022/04/16 01:50:57;;;;;;;11.63;7.90;;;5.80;99.90;;;;;;2508409;23;20011;-72
2022/04/16 01:51:58;;;;;;;11.20;7.50;;;5.80;99.90;;;;;;2508147;23;20018;-73
2022/04/16 01:52:59;;;;;;;13.25;7.80;;;5.80;99.90;;;;;;2508553;23;20018;-71
2022/04/16 01:53:59;;;;;;;11.07;7.63;;;5.90;99.90;;;;;;2508047;23;20548;-71
2022/04/16 01:55:00;;;;;;;10.82;7.65;;;5.90;99.90;;;;;;2508163;23;20026;-72
2022/04/16 01:56:01;;;;;;;9.40;6.95;;;5.90;99.90;;;;;;2508252;23;20007;-72
2022/04/16 01:57:02;;;;;;;8.18;6.40;;;5.90;99.90;;;;;;2507988;23;20011;-73
2022/04/16 01:58:06;;;;;;;9.68;6.70;;;5.90;99.90;;;;;;2484151;23;20064;-72
2022/04/16 01:59:08;;;;;;;9.52;6.50;;;5.90;99.90;;;;;;2485201;23;20018;-73
2022/04/16 02:00:11;;;;;;;9.38;6.30;;;5.80;99.90;;;;;;2507035;23;20007;-72
2022/04/16 02:01:11;;;;;;;9.77;6.30;;;5.80;99.90;;;;;;2507512;23;20018;-74
2022/04/16 02:02:13;;;;;;;9.15;6.40;;;5.80;99.90;;;;;;2508423;23;20010;-72
2022/04/16 02:03:14;;;;;;;9.18;6.00;;;5.70;99.90;;;;;;2507891;23;20079;-73
2022/04/16 02:04:15;;;;;;;8.00;5.72;;;5.70;99.90;;;;;;2508894;23;20038;-73
2022/04/16 02:05:15;;;;;;;9.15;6.00;;;5.60;99.90;;;;;;2508013;23;20431;-72
2022/04/16 02:06:17;;;;;;;6.85;5.20;;;5.70;99.90;;;;;;2508117;23;20458;-72
2022/04/16 02:07:18;;;;;;;8.20;5.18;;;5.60;99.90;;;;;;2507529;23;20003;-70
2022/04/16 02:08:18;;;;;;;8.95;5.32;;;5.50;99.90;;;;;;2507623;23;20246;-72
2022/04/16 02:09:19;;;;;;;8.20;5.25;;;5.50;99.90;;;;;;2507513;23;20053;-71
2022/04/16 02:10:20;;;;;;;7.70;5.05;;;5.50;99.90;;;;;;2494647;23;20009;-72
2022/04/16 02:11:20;;;;;;;7.88;4.82;;;5.50;99.90;;;;;;2494924;23;20131;-72
2022/04/16 02:12:21;;;;;;;7.43;4.85;;;5.50;99.90;;;;;;2507789;23;19998;-71
2022/04/16 02:13:22;;;;;;;8.45;4.75;;;5.50;99.90;;;;;;2507229;23;19999;-71
2022/04/16 02:14:23;;;;;;;9.25;4.55;;;5.50;99.90;;;;;;2507393;23;20007;-71
2022/04/16 02:15:24;;;;;;;8.90;4.53;;;5.40;99.90;;;;;;2507355;23;20033;-72
2022/04/16 02:16:25;;;;;;;7.25;4.35;;;5.40;99.90;;;;;;2507337;23;20022;-72
2022/04/16 02:17:25;;;;;;;7.28;4.15;;;5.30;99.90;;;;;;2507457;23;20025;-72
2022/04/16 02:18:27;;;;;;;8.75;4.45;;;5.30;99.90;;;;;;2507527;23;20078;-72
2022/04/16 02:19:28;;;;;;;7.18;4.00;;;5.30;99.90;;;;;;2506772;23;20002;-72
2022/04/16 02:20:28;;;;;;;5.18;4.18;;;5.30;99.90;;;;;;2506763;23;20003;-70
2022/04/16 02:21:32;;;;;;;6.28;4.03;;;5.30;99.90;;;;;;2495409;23;20019;-70
2022/04/16 02:22:44;;;;;;;6.57;4.22;;;5.20;99.90;;;;;;2483919;23;20131;-70
2022/04/16 02:23:44;;;;;;;8.48;4.10;;;5.10;99.90;;;;;;2485140;23;20438;-71
2022/04/16 02:24:46;;;;;;;6.90;4.15;;;5.10;99.90;;;;;;2495706;23;20003;-71
2022/04/16 02:25:46;;;;;;;5.50;4.00;;;5.10;99.90;;;;;;2507885;23;20359;-71
2022/04/16 02:26:47;;;;;;;5.50;3.67;;;5.20;99.90;;;;;;2507081;23;20011;-72
2022/04/16 02:27:47;;;;;;;7.30;4.00;;;5.20;99.90;;;;;;2507890;23;20045;-72
2022/04/16 02:28:48;;;;;;;6.72;3.65;;;5.20;99.90;;;;;;2508016;23;20021;-71
2022/04/16 02:29:49;;;;;;;5.40;3.85;;;5.20;99.90;;;;;;2508504;23;20054;-74
2022/04/16 02:30:49;;;;;;;5.57;3.58;;;5.20;99.90;;;;;;2507589;23;20012;-72
2022/04/16 02:31:50;;;;;;;5.68;3.85;;;5.20;99.90;;;;;;2507021;23;20073;-71
2022/04/16 02:32:55;;;;;;;7.75;4.03;;;5.10;99.90;;;;;;2506685;23;20102;-71
2022/04/16 02:33:55;;;;;;;6.70;3.78;;;5.20;99.90;;;;;;2506174;23;20038;-71
2022/04/16 02:34:56;;;;;;;7.05;4.10;;;5.20;99.90;;;;;;2507533;23;20771;-71
2022/04/16 02:35:59;;;;;;;5.57;3.85;;;5.10;99.90;;;;;;2507451;23;20450;-71
2022/04/16 02:37:00;;;;;;;5.38;3.80;;;5.10;99.90;;;;;;2507303;23;20007;-71
2022/04/16 02:38:01;;;;;;;8.27;4.03;;;5.20;99.90;;;;;;2507253;23;20003;-71
2022/04/16 02:39:02;;;;;;;8.10;3.95;;;5.20;99.90;;;;;;2507230;23;20039;-71
2022/04/16 02:40:04;;;;;;;6.45;3.97;;;5.30;99.90;;;;;;2507170;23;19999;-70
2022/04/16 02:41:04;;;;;;;5.85;3.85;;;5.20;99.90;;;;;;2494722;23;20491;-71
2022/04/16 02:42:05;;;;;;;7.13;4.00;;;5.30;99.90;;;;;;2494573;23;20003;-71
2022/04/16 02:43:06;;;;;;;6.75;4.60;;;5.20;99.90;;;;;;2506920;23;20038;-72
2022/04/16 02:47:04;;;;;;;8.73;4.60;;;5.30;99.90;;;;;;2507053;23;19999;-70
2022/04/16 02:47:06;;;;;;;6.45;4.70;;;5.30;99.90;;;;;;2505420;23;20015;-71
2022/04/16 02:48:07;;;;;;;6.93;4.88;;;5.20;99.90;;;;;;2505930;23;20530;-73
2022/04/16 02:49:10;;;;;;;6.85;4.88;;;5.10;99.90;;;;;;2493060;23;20015;-71
2022/04/16 02:50:11;;;;;;;7.25;5.13;;;5.10;99.90;;;;;;2494374;23;20468;-71
2022/04/16 02:51:12;;;;;;;7.65;5.05;;;5.00;99.90;;;;;;2506072;23;20015;-72
2022/04/16 02:52:13;;;;;;;7.95;4.50;;;5.00;99.90;;;;;;2505933;23;20018;-72
2022/04/16 02:53:13;;;;;;;7.50;4.43;;;4.90;99.90;;;;;;2506915;23;20018;-72
2022/04/16 02:54:14;;;;;;;7.45;4.28;;;5.00;99.90;;;;;;2506313;23;20011;-72
2022/04/16 02:55:18;;;;;;;6.35;4.30;;;5.00;99.90;;;;;;2507465;23;20041;-72
2022/04/16 02:56:18;;;;;;;7.45;4.20;;;5.00;99.90;;;;;;2495037;23;20011;-72
2022/04/16 02:57:19;;;;;;;5.95;3.85;;;5.00;99.90;;;;;;2494511;23;20034;-73
2022/04/16 02:58:20;;;;;;;5.43;3.40;;;5.00;99.90;;;;;;2506661;23;20061;-71
2022/04/16 02:59:21;;;;;;;6.90;3.65;;;4.90;99.90;;;;;;2506350;23;20025;-72
2022/04/16 03:00:22;;;;;;;5.97;3.80;;;4.90;99.90;;;;;;2506895;23;20030;-72
2022/04/16 03:01:23;;;;;;;6.07;3.90;;;4.90;99.90;;;;;;2507139;23;20010;-73
2022/04/16 03:02:24;;;;;;;7.13;3.88;;;4.90;99.90;;;;;;2507252;23;20010;-72
2022/04/16 03:03:25;;;;;;;6.35;3.65;;;5.00;99.90;;;;;;2506182;23;19999;-71
2022/04/16 03:04:26;;;;;;;5.78;3.60;;;5.00;99.90;;;;;;2506477;23;20007;-73
2022/04/16 03:05:27;;;;;;;8.25;4.47;;;5.00;99.90;;;;;;2494699;23;19995;-72
2022/04/16 03:06:28;;;;;;;5.22;3.80;;;5.00;99.90;;;;;;2507400;23;20054;-72
2022/04/16 03:07:28;;;;;;;7.47;3.63;;;5.00;99.90;;;;;;2507412;23;20017;-72
2022/04/16 03:08:29;;;;;;;8.07;3.70;;;5.00;99.90;;;;;;2494795;23;20130;-72
2022/04/16 03:09:29;;;;;;;5.72;3.78;;;5.00;99.90;;;;;;2494676;23;20607;-73
2022/04/16 03:10:30;;;;;;;6.50;3.42;;;5.00;99.90;;;;;;2507082;23;20439;-72
2022/04/16 03:11:31;;;;;;;5.70;3.38;;;5.00;99.90;;;;;;2507012;23;19999;-71
2022/04/16 03:12:42;;;;;;;5.80;3.58;;;5.00;99.90;;;;;;2507562;23;20042;-72
2022/04/16 03:13:43;;;;;;;4.45;3.35;;;5.00;99.90;;;;;;2494074;23;20011;-71
2022/04/16 03:17:35;;;;;;;6.93;3.67;;;4.90;99.90;;;;;;2507413;23;20428;-72
2022/04/16 03:18:36;;;;;;;7.97;3.60;;;4.90;99.90;;;;;;2506554;23;20018;-72
2022/04/16 03:19:37;;;;;;;4.85;3.15;;;4.80;99.90;;;;;;2506555;23;20109;-72
2022/04/16 03:20:39;;;;;;;4.80;3.40;;;4.80;99.90;;;;;;2506188;23;20019;-72
2022/04/16 03:21:39;;;;;;;7.93;3.80;;;4.80;99.90;;;;;;2506689;23;20011;-71
2022/04/16 03:22:43;;;;;;;6.70;4.00;;;4.80;99.90;;;;;;2506846;23;20011;-71
2022/04/16 03:23:43;;;;;;;7.55;3.65;;;4.80;99.90;;;;;;2506452;23;20018;-72
2022/04/16 03:24:44;;;;;;;7.40;3.65;;;4.70;99.90;;;;;;2507405;23;20006;-72
2022/04/16 03:25:45;;;;;;;5.72;3.70;;;4.70;99.90;;;;;;2507856;23;20062;-72
2022/04/16 03:26:45;;;;;;;4.65;3.85;;;4.80;99.90;;;;;;2507723;23;20002;-72
2022/04/16 03:27:46;;;;;;;6.85;3.92;;;4.60;99.90;;;;;;2507830;23;20418;-72
2022/04/16 03:28:46;;;;;;;9.18;3.95;;;4.60;99.90;;;;;;2494934;23;20008;-72
2022/04/16 03:29:47;;;;;;;6.80;3.70;;;4.60;99.90;;;;;;2483165;23;20060;-73
2022/04/16 03:30:47;;;;;;;7.05;3.85;;;4.60;99.90;;;;;;2494766;23;20070;-71
2022/04/16 03:31:48;;;;;;;7.75;3.65;;;4.70;99.90;;;;;;2506881;23;20006;-71
2022/04/16 03:32:49;;;;;;;6.68;3.90;;;4.70;99.90;;;;;;2506873;23;20450;-72
2022/04/16 03:33:50;;;;;;;5.57;3.92;;;4.60;99.90;;;;;;2507085;23;20060;-71
2022/04/16 03:34:50;;;;;;;7.53;4.13;;;4.70;99.90;;;;;;2506763;23;20015;-71
2022/04/16 03:35:52;;;;;;;6.07;3.88;;;4.70;99.90;;;;;;2506999;23;20442;-71
2022/04/16 03:36:52;;;;;;;5.53;3.83;;;4.70;99.90;;;;;;2507644;23;20015;-72
2022/04/16 03:37:54;;;;;;;6.47;3.95;;;4.70;99.90;;;;;;2507503;23;20082;-72
2022/04/16 03:38:55;;;;;;;6.43;3.97;;;4.60;99.90;;;;;;2482971;23;20091;-72
2022/04/16 03:39:55;;;;;;;6.25;3.88;;;4.60;99.90;;;;;;2482870;23;20015;-72
2022/04/16 03:40:56;;;;;;;5.85;3.75;;;4.60;99.90;;;;;;2507486;23;20094;-72
2022/04/16 03:41:56;;;;;;;6.13;3.90;;;4.50;99.90;;;;;;2507947;23;20563;-72
2022/04/16 03:42:59;;;;;;;6.97;4.10;;;4.50;99.90;;;;;;2507479;23;20344;-73
2022/04/16 03:44:00;;;;;;;6.07;4.20;;;4.50;99.90;;;;;;2507358;23;20026;-71
2022/04/16 03:45:01;;;;;;;7.05;4.40;;;4.50;99.90;;;;;;2507508;23;19998;-72
2022/04/16 03:46:01;;;;;;;7.00;4.03;;;4.40;99.90;;;;;;2507582;23;20079;-70
2022/04/16 03:47:02;;;;;;;5.38;3.97;;;4.40;99.90;;;;;;2495127;23;20090;-72
2022/04/16 03:48:07;;;;;;;7.78;4.10;;;4.40;99.90;;;;;;2494710;23;20011;-73
2022/04/16 03:49:07;;;;;;;6.88;4.18;;;4.40;99.90;;;;;;2506764;23;20475;-73
2022/04/16 03:50:08;;;;;;;8.60;4.30;;;4.40;99.90;;;;;;2507783;23;20003;-73
2022/04/16 03:51:09;;;;;;;4.82;3.80;;;4.40;99.90;;;;;;2508155;23;20021;-73
2022/04/16 03:52:10;;;;;;;6.70;4.10;;;4.40;99.90;;;;;;2508130;23;20011;-72
2022/04/16 03:53:10;;;;;;;8.23;4.40;;;4.50;99.90;;;;;;2508170;23;20007;-73
2022/04/16 04:00:50;;;;;;;6.63;3.88;;;4.30;99.90;;;;;;2508154;23;20007;-72
2022/04/16 04:01:50;;;;;;;5.28;3.97;;;4.30;99.90;;;;;;2508060;23;20007;-71
2022/04/16 04:02:51;;;;;;;9.75;4.20;;;4.20;99.90;;;;;;2508098;23;20503;-71
2022/04/16 04:03:51;;;;;;;5.57;3.88;;;4.30;99.90;;;;;;2507608;23;20010;-72
2022/04/16 04:04:52;;;;;;;7.45;4.05;;;4.20;99.90;;;;;;2507896;23;20050;-71
2022/04/16 04:05:54;;;;;;;7.45;4.00;;;4.20;99.90;;;;;;2507850;23;20036;-72
2022/04/16 04:06:54;;;;;;;7.22;3.97;;;4.20;99.90;;;;;;2507782;23;20006;-72
2022/04/16 04:07:55;;;;;;;7.30;4.07;;;4.30;99.90;;;;;;2495170;23;20011;-71
2022/04/16 04:08:57;;;;;;;6.22;3.97;;;4.30;99.90;;;;;;2495219;23;20011;-71
2022/04/16 04:09:57;;;;;;;6.70;3.92;;;4.30;99.90;;;;;;2506846;23;20074;-72
2022/04/16 04:10:58;;;;;;;7.00;4.55;;;4.30;99.90;;;;;;2507040;23;20011;-71
2022/04/16 04:11:58;;;;;;;8.57;4.72;;;4.30;99.90;;;;;;2507960;23;20015;-71
2022/04/16 04:12:59;;;;;;;7.13;3.92;;;4.40;99.90;;;;;;2508074;23;20571;-70
2022/04/16 04:14:00;;;;;;;7.85;4.28;;;4.30;99.90;;;;;;2494880;23;20078;-71
2022/04/16 04:15:01;;;;;;;7.53;4.20;;;4.40;99.90;;;;;;2495359;23;20026;-71
2022/04/16 04:16:01;;;;;;;8.10;3.97;;;4.30;99.90;;;;;;2507548;23;20015;-73
2022/04/16 04:17:02;;;;;;;5.40;4.15;;;4.30;99.90;;;;;;2507805;23;20688;-72
2022/04/16 04:18:03;;;;;;;6.13;4.30;;;4.30;99.90;;;;;;2495112;23;20061;-70
2022/04/16 04:19:04;;;;;;;8.10;4.70;;;4.30;99.90;;;;;;2495376;23;20006;-70
2022/04/16 04:20:05;;;;;;;7.68;4.32;;;4.30;99.90;;;;;;2507621;23;20006;-72
2022/04/16 04:21:06;;;;;;;6.63;4.50;;;4.40;99.90;;;;;;2507029;23;20014;-71
2022/04/16 04:22:10;;;;;;;8.45;4.60;;;4.40;99.90;;;;;;2507034;23;20091;-70
2022/04/16 04:23:11;;;;;;;7.35;5.00;;;4.40;99.90;;;;;;2506706;23;20007;-70
2022/04/16 04:24:11;;;;;;;8.55;5.10;;;4.40;99.90;;;;;;2507743;23;20038;-70
2022/04/16 04:25:12;;;;;;;7.30;5.03;;;4.40;99.90;;;;;;2494869;23;20028;-71
2022/04/16 04:26:13;;;;;;;6.57;5.32;;;4.40;99.90;;;;;;2483340;23;20007;-71
2022/04/16 04:27:13;;;;;;;7.55;5.20;;;4.30;99.90;;;;;;2495101;23;20013;-71
2022/04/16 04:28:14;;;;;;;8.80;5.50;;;4.30;99.90;;;;;;2507684;23;20003;-70
2022/04/16 04:29:14;;;;;;;11.07;6.15;;;4.30;99.90;;;;;;2507760;23;20014;-71
2022/04/16 04:30:15;;;;;;;7.72;5.70;;;4.30;99.90;;;;;;2507578;23;20007;-72
2022/04/16 04:31:16;;;;;;;8.48;5.70;;;4.30;99.90;;;;;;2507773;23;20010;-72
2022/04/16 04:32:16;;;;;;;10.90;6.10;;;4.20;99.90;;;;;;2507742;23;20019;-70
2022/04/16 04:33:17;;;;;;;7.97;5.60;;;4.20;99.90;;;;;;2496162;23;20523;-72
2022/04/16 04:34:17;;;;;;;9.70;6.57;;;4.20;99.90;;;;;;2496100;23;20014;-73
2022/04/16 04:35:18;;;;;;;11.07;7.38;;;4.30;99.90;;;;;;2495928;23;20031;-72
2022/04/16 04:36:19;;;;;;;11.80;7.95;;;4.20;99.90;;;;;;2495868;23;20014;-71
2022/04/16 04:37:19;;;;;;;11.07;7.82;;;4.20;99.90;;;;;;2507947;23;20078;-71
2022/04/16 04:38:20;;;;;;;14.02;8.23;;;4.30;99.90;;;;;;2495147;23;20008;-72
2022/04/16 04:39:20;;;;;;;13.15;9.10;;;4.30;99.90;;;;;;2495281;23;20202;-71
2022/04/16 04:40:22;;;;;;;11.70;8.45;;;4.30;99.90;;;;;;2507750;23;20025;-71
2022/04/16 04:41:22;;;;;;;14.10;10.25;;;4.30;99.90;;;;;;2495364;23;20063;-71
2022/04/16 04:42:24;;;;;;;14.00;9.85;;;4.30;99.90;;;;;;2495280;23;20015;-72
2022/04/16 04:43:25;;;;;;;13.68;10.13;;;4.20;99.90;;;;;;2494739;23;20115;-71
2022/04/16 04:44:25;;;;;;;13.07;10.25;;;4.20;99.90;;;;;;2494927;23;20007;-73
2022/04/16 04:45:26;;;;;;;13.30;10.55;;;4.30;99.90;;;;;;2495218;23;20353;-70
2022/04/16 04:46:26;;;;;;;14.43;11.20;;;4.30;99.90;;;;;;2507536;23;19995;-71
2022/04/16 04:47:27;;;;;;;15.40;10.68;;;4.30;99.90;;;;;;2495553;23;20035;-73
2022/04/16 04:48:28;;;;;;;16.13;11.15;;;4.30;99.90;;;;;;2495744;23;20010;-72
2022/04/16 04:49:28;;;;;;;12.93;10.35;;;4.20;99.90;;;;;;2507875;23;20045;-72
2022/04/16 04:50:29;;;;;;;14.20;10.88;;;4.20;99.90;;;;;;2507389;23;20027;-71
2022/04/16 04:51:29;;;;;;;15.48;11.63;;;4.20;99.90;;;;;;2507969;23;20098;-74
2022/04/16 04:52:30;;;;;;;16.20;11.65;;;4.20;99.90;;;;;;2507675;23;20003;-73
2022/04/16 04:53:31;;;;;;;15.00;10.95;;;4.30;99.90;;;;;;2494586;23;20012;-72
2022/04/16 04:54:31;;;;;;;15.18;11.40;;;4.20;99.90;;;;;;2494876;23;20075;-73
2022/04/16 04:55:32;;;;;;;13.55;11.02;;;4.20;99.90;;;;;;2507039;23;20007;-72
2022/04/16 04:56:36;;;;;;;12.60;10.70;;;4.20;99.90;;;;;;2507653;23;20006;-71
2022/04/16 04:57:36;;;;;;;17.20;10.98;;;4.20;99.90;;;;;;2507869;23;20464;-71
2022/04/16 04:58:37;;;;;;;13.07;10.18;;;4.20;99.90;;;;;;2507652;23;20102;-72
2022/04/16 04:59:38;;;;;;;14.63;10.70;;;4.30;99.90;;;;;;2495121;23;20018;-72
2022/04/16 05:00:38;;;;;;;12.77;10.30;;;4.30;99.90;;;;;;2482916;23;20031;-71
2022/04/16 05:01:39;;;;;;;15.05;10.95;;;4.30;99.90;;;;;;2495226;23;20017;-71
2022/04/16 05:02:45;;;;;;;13.20;10.35;;;4.20;99.90;;;;;;2507709;23;20034;-72
2022/04/16 05:03:46;;;;;;;12.00;10.18;;;4.20;99.90;;;;;;2507338;23;20011;-72
2022/04/16 05:04:46;;;;;;;14.13;10.68;;;4.30;99.90;;;;;;2508144;23;20013;-71
2022/04/16 05:05:47;;;;;;;15.43;11.13;;;4.30;99.90;;;;;;2495849;23;20059;-72
2022/04/16 05:06:48;;;;;;;10.75;9.63;;;4.30;99.90;;;;;;2495765;23;20030;-71
2022/04/16 05:07:48;;;;;;;12.15;9.85;;;4.20;99.90;;;;;;2496050;23;20008;-72
2022/04/16 05:08:49;;;;;;;12.05;9.48;;;4.20;99.90;;;;;;2507326;23;20021;-71
2022/04/16 05:09:51;;;;;;;12.32;9.60;;;4.30;99.90;;;;;;2507899;23;20034;-71
2022/04/16 05:10:51;;;;;;;13.02;9.55;;;4.20;99.90;;;;;;2507666;23;20102;-71
2022/04/16 05:11:52;;;;;;;12.07;9.25;;;4.20;99.90;;;;;;2507855;23;20018;-72
2022/04/16 05:12:56;;;;;;;10.60;8.68;;;4.20;99.90;;;;;;2494967;23;20015;-72
2022/04/16 05:13:57;;;;;;;11.82;9.02;;;4.20;99.90;;;;;;2495888;23;20015;-72
2022/04/16 05:14:57;;;;;;;10.65;9.02;;;4.20;99.90;;;;;;2506983;23;20011;-71
2022/04/16 05:15:58;;;;;;;11.63;9.20;;;4.20;99.90;;;;;;2507976;23;20105;-72
2022/04/16 05:16:59;;;;;;;9.32;7.60;;;4.10;99.90;;;;;;2507053;23;20015;-75
2022/04/16 05:17:59;;;;;;;8.70;7.75;;;4.10;99.90;;;;;;2507547;23;20007;-72
2022/04/16 05:19:00;;;;;;;11.48;8.70;;;4.10;99.90;;;;;;2508080;23;20586;-72
2022/04/16 05:20:03;;;;;;;11.98;8.52;;;4.10;99.90;;;;;;2507949;23;20021;-72
2022/04/16 05:21:03;;;;;;;10.25;8.43;;;4.10;99.90;;;;;;2494913;23;20014;-71
2022/04/16 05:22:04;;;;;;;11.55;8.27;;;4.00;99.90;;;;;;2494960;23;20341;-71
2022/04/16 05:23:05;;;;;;;11.43;8.32;;;4.10;99.90;;;;;;2494817;23;20812;-70
2022/04/16 05:24:06;;;;;;;9.77;8.50;;;4.10;99.90;;;;;;2495207;23;20011;-69
2022/04/16 05:25:07;;;;;;;9.88;8.75;;;4.10;99.90;;;;;;2495045;23;20015;-72
2022/04/16 05:26:11;;;;;;;9.88;8.43;;;4.10;99.90;;;;;;2494987;23;20003;-70
2022/04/16 05:27:12;;;;;;;10.10;8.90;;;4.10;99.90;;;;;;2494884;23;20015;-70
2022/04/16 05:28:13;;;;;;;10.32;8.02;;;4.10;99.90;;;;;;2495025;23;20490;-70
2022/04/16 05:29:14;;;;;;;10.27;8.68;;;4.10;99.90;;;;;;2507733;23;20010;-70
2022/04/16 05:30:38;;;;;;;10.00;8.45;;;4.10;99.90;;;;;;2494765;23;20439;-68
2022/04/16 05:31:38;;;;;;;18.05;11.63;;;4.10;99.90;;;;;;2499574;23;20017;-69